createdAt,value
2018-02-13T00:00:15.626Z,99.90
2018-02-13T00:02:44.954Z,99.90
2018-02-13T00:05:13.312Z,99.90
2018-02-13T00:07:41.664Z,99.90
2018-02-13T00:10:10.053Z,99.90
2018-02-13T00:12:38.592Z,99.90
2018-02-13T00:15:07.775Z,99.90
2018-02-13T00:17:36.208Z,99.90
2018-02-13T00:20:04.556Z,99.90
2018-02-13T00:22:45.467Z,99.90
2018-02-13T00:25:13.844Z,99.90
2018-02-13T00:27:42.220Z,99.90
2018-02-13T00:30:10.595Z,99.90
2018-02-13T00:32:38.951Z,99.90
2018-02-13T00:35:08.080Z,99.90
2018-02-13T00:37:36.424Z,99.90
2018-02-13T00:40:05.549Z,99.90
2018-02-13T00:42:33.893Z,99.90
2018-02-13T00:45:03.022Z,99.90
2018-02-13T00:47:31.377Z,99.90
2018-02-13T00:49:59.715Z,99.90
2018-02-13T00:52:28.168Z,99.90
2018-02-13T00:54:56.567Z,99.90
2018-02-13T00:57:24.936Z,99.90
2018-02-13T00:59:53.298Z,99.90
2018-02-13T01:02:21.685Z,99.90
2018-02-13T01:04:50.065Z,99.90
2018-02-13T01:07:18.411Z,99.90
2018-02-13T01:09:48.064Z,99.90
2018-02-13T01:12:16.407Z,99.90
2018-02-13T01:14:44.764Z,99.90
2018-02-13T01:17:13.128Z,99.90
2018-02-13T01:19:41.484Z,99.90
2018-02-13T01:22:09.844Z,99.90
2018-02-13T01:24:38.194Z,99.90
2018-02-13T01:27:07.640Z,99.90
2018-02-13T01:29:35.980Z,99.90
2018-02-13T01:32:04.368Z,99.90
2018-02-13T01:34:32.766Z,99.90
2018-02-13T01:37:01.116Z,99.90
2018-02-13T01:39:30.299Z,99.90
2018-02-13T01:41:58.634Z,99.90
2018-02-13T01:44:26.980Z,99.90
2018-02-13T01:46:55.341Z,99.90
2018-02-13T01:49:24.474Z,99.90
2018-02-13T01:51:52.853Z,99.90
2018-02-13T01:54:21.290Z,99.90
2018-02-13T01:56:49.623Z,99.90
2018-02-13T01:59:17.990Z,99.90
2018-02-13T02:01:46.327Z,99.90
2018-02-13T02:04:15.454Z,99.90
2018-02-13T02:06:43.798Z,99.90
2018-02-13T02:09:12.155Z,99.90
2018-02-13T02:11:40.504Z,99.90
2018-02-13T02:14:09.192Z,99.90
2018-02-13T02:16:37.548Z,99.90
2018-02-13T02:19:05.936Z,99.90
2018-02-13T02:21:34.328Z,99.90
2018-02-13T02:24:02.685Z,99.90
2018-02-13T02:26:32.118Z,99.90
2018-02-13T02:29:00.707Z,99.90
2018-02-13T02:31:29.033Z,99.90
2018-02-13T02:33:58.173Z,99.90
2018-02-13T02:36:26.529Z,99.90
2018-02-13T02:38:54.927Z,99.90
2018-02-13T02:41:23.272Z,99.90
2018-02-13T02:43:52.399Z,99.90
2018-02-13T02:46:20.750Z,99.90
2018-02-13T02:48:49.860Z,99.90
2018-02-13T02:51:18.228Z,99.90
2018-02-13T02:53:47.340Z,99.90
2018-02-13T02:56:15.726Z,99.90
2018-02-13T02:58:44.096Z,99.90
2018-02-13T03:01:12.428Z,99.90
2018-02-13T03:03:40.795Z,99.90
2018-02-13T03:06:09.133Z,99.90
2018-02-13T03:08:37.476Z,99.90
2018-02-13T03:11:06.095Z,99.90
2018-02-13T03:13:34.443Z,99.90
2018-02-13T03:16:02.791Z,99.90
2018-02-13T03:18:31.157Z,99.90
2018-02-13T03:20:59.497Z,99.90
2018-02-13T03:23:29.045Z,99.90
2018-02-13T03:25:57.423Z,99.90
2018-02-13T03:28:25.768Z,99.90
2018-02-13T03:30:54.123Z,99.90
2018-02-13T03:33:22.471Z,99.90
2018-02-13T03:35:50.834Z,99.90
2018-02-13T03:38:19.208Z,99.90
2018-02-13T03:40:47.583Z,99.90
2018-02-13T03:43:15.960Z,99.90
2018-02-13T03:45:44.298Z,99.90
2018-02-13T03:48:13.755Z,99.90
2018-02-13T03:50:42.128Z,99.90
2018-02-13T03:53:10.475Z,99.90
2018-02-13T03:55:39.604Z,99.90
2018-02-13T03:58:07.951Z,99.90
2018-02-13T04:00:36.315Z,99.90
2018-02-13T04:03:05.431Z,99.90
2018-02-13T04:05:34.552Z,99.90
2018-02-13T04:08:02.901Z,99.90
2018-02-13T04:10:32.031Z,99.90
2018-02-13T04:13:00.404Z,99.90
2018-02-13T04:15:28.977Z,99.90
2018-02-13T04:17:58.079Z,99.90
2018-02-13T04:20:26.416Z,99.90
2018-02-13T04:22:54.779Z,99.90
2018-02-13T04:25:23.141Z,99.90
2018-02-13T04:27:51.494Z,99.90
2018-02-13T04:30:19.861Z,99.90
2018-02-13T04:32:48.360Z,99.90
2018-02-13T04:35:16.861Z,99.90
2018-02-13T04:37:45.194Z,99.90
2018-02-13T04:40:14.312Z,99.90
2018-02-13T04:42:43.608Z,99.90
2018-02-13T04:45:11.960Z,99.90
2018-02-13T04:47:41.097Z,99.90
2018-02-13T04:50:09.476Z,99.90
2018-02-13T04:52:37.829Z,99.90
2018-02-13T04:55:06.953Z,99.90
2018-02-13T04:57:35.323Z,99.90
2018-02-13T05:00:03.667Z,99.90
2018-02-13T05:02:32.788Z,99.90
2018-02-13T05:05:01.505Z,99.90
2018-02-13T05:07:29.911Z,99.90
2018-02-13T05:09:58.256Z,99.90
2018-02-13T05:12:26.615Z,99.90
2018-02-13T05:14:54.958Z,99.90
2018-02-13T05:17:23.405Z,99.90
2018-02-13T05:19:51.816Z,99.90
2018-02-13T05:22:20.177Z,99.90
2018-02-13T05:24:48.521Z,99.90
2018-02-13T05:27:16.866Z,99.90
2018-02-13T05:29:45.983Z,99.90
2018-02-13T05:32:14.341Z,99.90
2018-02-13T05:34:43.515Z,99.90
2018-02-13T05:37:11.880Z,99.90
2018-02-13T05:39:40.231Z,99.90
2018-02-13T05:42:08.587Z,99.90
2018-02-13T05:44:37.708Z,99.90
2018-02-13T05:47:06.405Z,99.90
2018-02-13T05:49:34.760Z,99.90
2018-02-13T05:52:03.124Z,99.90
2018-02-13T05:54:32.516Z,99.90
2018-02-13T05:57:00.940Z,99.90
2018-02-13T05:59:29.312Z,99.90
2018-02-13T06:01:57.664Z,99.90
2018-02-13T06:04:26.784Z,99.90
2018-02-13T06:06:55.276Z,99.90
2018-02-13T06:09:24.362Z,99.90
2018-02-13T06:11:52.746Z,99.90
2018-02-13T06:14:21.092Z,99.90
2018-02-13T06:16:50.215Z,99.90
2018-02-13T06:19:19.232Z,99.90
2018-02-13T06:21:47.576Z,99.90
2018-02-13T06:24:15.948Z,99.90
2018-02-13T06:26:45.070Z,99.90
2018-02-13T06:29:13.436Z,99.90
2018-02-13T06:31:41.908Z,99.90
2018-02-13T06:34:10.305Z,99.90
2018-02-13T06:36:39.008Z,99.90
2018-02-13T06:39:07.360Z,99.90
2018-02-13T06:41:35.923Z,99.90
2018-02-13T06:44:04.266Z,99.90
2018-02-13T06:46:32.611Z,99.90
2018-02-13T06:49:00.988Z,99.90
2018-02-13T06:51:29.336Z,99.90
2018-02-13T06:53:57.695Z,99.90
2018-02-13T06:56:26.071Z,99.90
2018-02-13T06:58:54.396Z,99.90
2018-02-13T07:01:22.792Z,99.90
2018-02-13T07:03:51.239Z,99.90
2018-02-13T07:06:20.839Z,99.90
2018-02-13T07:08:49.255Z,99.90
2018-02-13T07:11:17.652Z,99.90
2018-02-13T07:13:46.012Z,99.90
2018-02-13T07:16:14.346Z,99.90
2018-02-13T07:18:43.644Z,99.90
2018-02-13T07:21:12.000Z,99.90
2018-02-13T07:23:40.343Z,99.90
2018-02-13T07:26:08.745Z,99.90
2018-02-13T07:28:37.581Z,99.90
2018-02-13T07:31:05.931Z,99.90
2018-02-13T07:33:34.287Z,99.90
2018-02-13T07:36:02.648Z,99.90
2018-02-13T07:38:31.047Z,99.90
2018-02-13T07:40:59.695Z,99.90
2018-02-13T07:43:28.044Z,99.90
2018-02-13T07:45:56.400Z,99.90
2018-02-13T07:48:24.780Z,99.90
2018-02-13T07:50:53.137Z,99.90
2018-02-13T07:53:21.527Z,99.90
2018-02-13T07:55:49.891Z,99.90
2018-02-13T07:58:18.328Z,99.90
2018-02-13T08:00:46.723Z,99.90
2018-02-13T08:03:15.855Z,99.90
2018-02-13T08:05:44.198Z,99.90
2018-02-13T08:08:13.415Z,99.90
2018-02-13T08:10:42.531Z,99.90
2018-02-13T08:13:10.873Z,99.90
2018-02-13T08:15:40.007Z,99.90
2018-02-13T08:18:08.383Z,99.90
2018-02-13T08:20:36.748Z,99.90
2018-02-13T08:23:05.088Z,99.90
2018-02-13T08:25:33.424Z,99.90
2018-02-13T08:28:01.763Z,99.90
2018-02-13T08:30:30.904Z,99.90
2018-02-13T08:32:59.280Z,99.90
2018-02-13T08:35:27.643Z,99.90
2018-02-13T08:37:55.976Z,99.90
2018-02-13T08:40:24.518Z,99.90
2018-02-13T08:42:52.895Z,99.90
2018-02-13T08:45:21.265Z,99.90
2018-02-13T08:47:49.671Z,99.90
2018-02-13T08:50:18.043Z,99.90
2018-02-13T08:52:46.405Z,99.90
2018-02-13T08:55:14.768Z,99.90
2018-02-13T08:57:43.884Z,99.80
2018-02-13T09:00:12.240Z,99.50
2018-02-13T09:02:41.342Z,99.30
2018-02-13T09:05:10.451Z,99.40
2018-02-13T09:07:38.857Z,99.40
2018-02-13T09:10:07.320Z,99.40
2018-02-13T09:12:35.701Z,99.90
2018-02-13T09:15:04.223Z,99.90
2018-02-13T09:17:32.576Z,99.90
2018-02-13T09:20:00.908Z,99.90
2018-02-13T09:22:30.127Z,99.90
2018-02-13T09:24:58.464Z,99.90
2018-02-13T09:27:26.915Z,99.90
2018-02-13T09:29:55.262Z,99.90
2018-02-13T09:32:24.381Z,99.90
2018-02-13T09:34:52.740Z,99.90
2018-02-13T09:37:21.084Z,99.90
2018-02-13T09:39:49.835Z,99.90
2018-02-13T09:42:18.170Z,99.90
2018-02-13T09:44:47.298Z,99.90
2018-02-13T09:47:15.639Z,99.90
2018-02-13T09:49:44.744Z,99.90
2018-02-13T09:52:13.953Z,99.90
2018-02-13T09:54:43.048Z,99.90
2018-02-13T09:57:11.388Z,99.90
2018-02-13T09:59:39.753Z,99.90
2018-02-13T10:02:08.109Z,99.90
2018-02-13T10:04:36.475Z,99.90
2018-02-13T10:07:04.816Z,99.90
2018-02-13T10:09:33.160Z,99.70
2018-02-13T10:12:01.495Z,99.50
2018-02-13T10:14:30.590Z,99.90
2018-02-13T10:16:59.719Z,99.90
2018-02-13T10:19:28.071Z,99.90
2018-02-13T10:21:56.419Z,99.90
2018-02-13T10:24:24.771Z,99.30
2018-02-13T10:26:53.112Z,99.30
2018-02-13T10:29:21.736Z,99.40
2018-02-13T10:31:50.085Z,99.00
2018-02-13T10:34:18.419Z,99.20
2018-02-13T10:36:46.771Z,99.00
2018-02-13T10:39:15.113Z,98.70
2018-02-13T10:41:43.480Z,98.90
2018-02-13T10:44:11.829Z,98.90
2018-02-13T10:46:40.169Z,98.70
2018-02-13T10:49:08.516Z,98.90
2018-02-13T10:51:37.602Z,98.60
2018-02-13T10:54:05.951Z,98.60
2018-02-13T10:56:34.298Z,98.60
2018-02-13T10:59:02.636Z,98.50
2018-02-13T11:01:40.456Z,98.20
2018-02-13T11:04:09.618Z,97.80
2018-02-13T11:06:38.049Z,97.80
2018-02-13T11:09:06.390Z,97.70
2018-02-13T11:11:35.502Z,97.60
2018-02-13T11:14:03.868Z,97.60
2018-02-13T11:16:32.220Z,97.70
2018-02-13T11:19:00.680Z,97.20
2018-02-13T11:21:28.989Z,97.50
2018-02-13T11:23:57.358Z,97.10
2018-02-13T11:26:25.687Z,97.20
2018-02-13T11:28:54.067Z,97.10
2018-02-13T11:31:22.417Z,96.50
2018-02-13T11:33:51.518Z,96.70
2018-02-13T11:36:20.747Z,95.70
2018-02-13T11:38:49.243Z,95.70
2018-02-13T11:41:17.611Z,94.90
2018-02-13T11:43:45.964Z,93.40
2018-02-13T11:46:15.100Z,91.40
2018-02-13T11:48:43.454Z,91.30
2018-02-13T11:51:11.840Z,90.90
2018-02-13T11:53:40.220Z,90.40
2018-02-13T11:56:09.188Z,88.60
2018-02-13T11:58:37.528Z,86.40
2018-02-13T12:01:05.864Z,83.40
2018-02-13T12:03:34.195Z,83.40
2018-02-13T12:06:02.539Z,83.80
2018-02-13T12:08:30.885Z,81.00
2018-02-13T12:10:59.976Z,81.50
2018-02-13T12:13:29.101Z,78.00
2018-02-13T12:15:57.436Z,77.90
2018-02-13T12:18:26.076Z,78.90
2018-02-13T12:20:54.407Z,77.80
2018-02-13T12:23:23.530Z,79.80
2018-02-13T12:25:51.871Z,79.40
2018-02-13T12:28:20.208Z,76.30
2018-02-13T12:30:48.554Z,77.80
2018-02-13T12:33:17.686Z,76.00
2018-02-13T12:35:46.862Z,77.80
2018-02-13T12:38:15.188Z,77.00
2018-02-13T12:40:43.636Z,77.90
2018-02-13T12:43:11.987Z,74.20
2018-02-13T12:45:41.097Z,75.80
2018-02-13T12:48:09.439Z,75.80
2018-02-13T12:50:37.776Z,71.00
2018-02-13T12:53:06.118Z,71.40
2018-02-13T12:55:35.232Z,72.20
2018-02-13T12:58:03.560Z,72.20
2018-02-13T13:00:31.896Z,72.40
2018-02-13T13:03:00.283Z,73.20
2018-02-13T13:05:28.601Z,72.90
2018-02-13T13:07:57.341Z,74.00
2018-02-13T13:10:25.663Z,76.30
2018-02-13T13:12:54.103Z,76.00
2018-02-13T13:15:22.486Z,74.20
2018-02-13T13:17:50.859Z,75.50
2018-02-13T13:20:19.459Z,76.70
2018-02-13T13:22:47.792Z,77.50
2018-02-13T13:25:16.912Z,79.30
2018-02-13T13:27:45.281Z,79.20
2018-02-13T13:30:13.728Z,77.80
2018-02-13T13:32:42.094Z,78.80
2018-02-13T13:35:10.432Z,75.20
2018-02-13T13:37:38.817Z,73.10
2018-02-13T13:40:07.187Z,71.30
2018-02-13T13:42:35.529Z,65.80
2018-02-13T13:45:03.872Z,63.10
2018-02-13T13:47:32.220Z,60.10
2018-02-13T13:50:00.600Z,56.50
2018-02-13T13:52:28.943Z,54.00
2018-02-13T13:54:57.302Z,54.40
2018-02-13T13:57:25.862Z,54.20
2018-02-13T13:59:54.183Z,54.60
2018-02-13T14:02:22.524Z,54.20
2018-02-13T14:04:50.868Z,51.10
2018-02-13T14:07:19.262Z,49.80
2018-02-13T14:09:47.592Z,47.70
2018-02-13T14:12:15.939Z,46.10
2018-02-13T14:14:44.276Z,46.70
2018-02-13T14:17:12.768Z,48.10
2018-02-13T14:19:41.151Z,49.00
2018-02-13T14:22:09.491Z,47.00
2018-02-13T14:24:37.827Z,46.30
2018-02-13T14:27:06.161Z,46.60
2018-02-13T14:29:34.510Z,44.80
2018-02-13T14:32:02.844Z,44.70
2018-02-13T14:34:31.188Z,45.90
2018-02-13T14:37:00.313Z,44.40
2018-02-13T14:39:28.736Z,43.90
2018-02-13T14:41:57.144Z,44.80
2018-02-13T14:44:25.448Z,43.00
2018-02-13T14:46:53.780Z,45.10
2018-02-13T14:49:22.239Z,45.10
2018-02-13T14:51:50.568Z,46.90
2018-02-13T14:54:19.681Z,46.80
2018-02-13T14:56:48.078Z,46.90
2018-02-13T14:59:16.424Z,45.70
2018-02-13T15:01:45.514Z,47.10
2018-02-13T15:04:14.643Z,50.80
2018-02-13T15:06:42.968Z,50.60
2018-02-13T15:09:11.410Z,54.30
2018-02-13T15:11:39.725Z,56.00
2018-02-13T15:14:08.069Z,57.50
2018-02-13T15:16:36.866Z,58.90
2018-02-13T15:19:05.197Z,62.00
2018-02-13T15:21:34.323Z,66.30
2018-02-13T15:24:02.700Z,66.30
2018-02-13T15:26:31.650Z,68.00
2018-02-13T15:28:59.992Z,69.90
2018-02-13T15:31:28.322Z,72.00
2018-02-13T15:33:57.431Z,74.90
2018-02-13T15:36:25.814Z,74.70
2018-02-13T15:38:54.152Z,75.20
2018-02-13T15:41:22.495Z,75.50
2018-02-13T15:43:50.822Z,76.90
2018-02-13T15:46:19.152Z,77.10
2018-02-13T15:48:47.556Z,78.40
2018-02-13T15:51:15.905Z,78.80
2018-02-13T15:53:44.244Z,79.50
2018-02-13T15:56:13.349Z,80.50
2018-02-13T15:58:41.688Z,80.50
2018-02-13T16:01:10.065Z,80.10
2018-02-13T16:03:38.414Z,81.10
2018-02-13T16:06:06.745Z,81.40
2018-02-13T16:08:35.670Z,82.30
2018-02-13T16:11:04.016Z,82.60
2018-02-13T16:13:32.357Z,83.20
2018-02-13T16:16:00.708Z,83.90
2018-02-13T16:18:29.105Z,84.50
2018-02-13T16:20:57.508Z,84.90
2018-02-13T16:23:25.886Z,85.70
2018-02-13T16:25:54.177Z,86.20
2018-02-13T16:28:22.859Z,87.70
2018-02-13T16:30:51.339Z,88.60
2018-02-13T16:33:19.685Z,89.70
2018-02-13T16:35:48.028Z,90.20
2018-02-13T16:38:17.155Z,91.20
2018-02-13T16:40:45.748Z,90.80
2018-02-13T16:43:14.059Z,91.30
2018-02-13T16:45:42.392Z,91.70
2018-02-13T16:48:10.735Z,92.00
2018-02-13T16:50:39.966Z,92.60
2018-02-13T16:53:08.314Z,92.60
2018-02-13T16:55:37.425Z,93.00
2018-02-13T16:58:06.518Z,93.50
2018-02-13T17:00:35.639Z,93.80
2018-02-13T17:03:03.967Z,93.70
2018-02-13T17:05:32.307Z,94.00
2018-02-13T17:08:00.995Z,94.40
2018-02-13T17:10:29.324Z,94.50
2018-02-13T17:12:57.746Z,94.80
2018-02-13T17:15:26.084Z,95.00
2018-02-13T17:17:55.213Z,95.30
2018-02-13T17:20:23.697Z,95.30
2018-02-13T17:22:52.029Z,95.70
2018-02-13T17:25:20.364Z,95.80
2018-02-13T17:27:48.710Z,96.00
2018-02-13T17:30:17.075Z,96.10
2018-02-13T17:32:45.419Z,96.30
2018-02-13T17:35:13.748Z,96.40
2018-02-13T17:37:42.248Z,96.50
2018-02-13T17:40:10.600Z,96.70
2018-02-13T17:42:39.732Z,96.70
2018-02-13T17:45:08.105Z,96.70
2018-02-13T17:47:36.444Z,96.70
2018-02-13T17:50:05.565Z,97.40
2018-02-13T17:52:33.903Z,97.10
2018-02-13T17:55:02.348Z,97.10
2018-02-13T17:57:30.685Z,97.20
2018-02-13T17:59:59.821Z,97.40
2018-02-13T18:02:28.183Z,97.40
2018-02-13T18:04:56.527Z,97.40
2018-02-13T18:07:25.014Z,97.60
2018-02-13T18:09:53.325Z,97.80
2018-02-13T18:12:21.685Z,97.90
2018-02-13T18:14:50.780Z,98.30
2018-02-13T18:17:19.910Z,98.40
2018-02-13T18:19:48.248Z,98.40
2018-02-13T18:22:17.521Z,98.70
2018-02-13T18:24:45.845Z,98.70
2018-02-13T18:27:14.941Z,99.20
2018-02-13T18:29:44.277Z,99.90
2018-02-13T18:32:12.588Z,99.50
2018-02-13T18:34:40.970Z,99.80
2018-02-13T18:37:09.311Z,99.50
2018-02-13T18:39:37.706Z,99.60
2018-02-13T18:42:06.053Z,99.40
2018-02-13T18:44:34.396Z,99.40
2018-02-13T18:47:02.765Z,99.40
2018-02-13T18:49:31.112Z,99.30
2018-02-13T18:51:59.472Z,99.20
2018-02-13T18:54:27.883Z,99.30
2018-02-13T18:56:56.237Z,99.40
2018-02-13T18:59:25.117Z,99.20
2018-02-13T19:01:53.435Z,98.90
2018-02-13T19:04:21.884Z,98.70
2018-02-13T19:06:50.216Z,98.60
2018-02-13T19:09:18.568Z,98.50
2018-02-13T19:11:46.907Z,98.50
2018-02-13T19:14:15.572Z,98.50
2018-02-13T19:19:13.829Z,98.70
2018-02-13T19:21:42.188Z,98.70
2018-02-13T19:24:10.523Z,98.80
2018-02-13T19:26:38.863Z,99.00
2018-02-13T19:29:07.213Z,99.10
2018-02-13T19:31:35.596Z,99.20
2018-02-13T19:34:03.939Z,99.20
2018-02-13T19:36:32.285Z,99.20
2018-02-13T19:39:00.740Z,99.20
2018-02-13T19:41:29.067Z,99.30
2018-02-13T19:43:58.234Z,99.10
2018-02-13T19:46:26.739Z,99.00
2018-02-13T19:48:55.163Z,98.90
2018-02-13T19:51:23.500Z,98.70
2018-02-13T19:53:52.676Z,98.60
2018-02-13T19:56:21.008Z,98.30
2018-02-13T19:58:49.351Z,98.20
2018-02-13T20:01:17.714Z,98.00
2018-02-13T20:03:46.159Z,97.90
2018-02-13T20:06:14.528Z,97.90
2018-02-13T20:08:42.886Z,97.70
2018-02-13T20:11:11.253Z,97.60
2018-02-13T20:13:39.608Z,97.50
2018-02-13T20:16:07.936Z,97.40
2018-02-13T20:18:36.348Z,97.40
2018-02-13T20:21:05.434Z,97.20
2018-02-13T20:23:33.797Z,97.20
2018-02-13T20:26:02.138Z,96.70
2018-02-13T20:28:30.628Z,96.50
2018-02-13T20:30:58.989Z,96.30
2018-02-13T20:33:27.339Z,96.10
2018-02-13T20:35:55.689Z,96.10
2018-02-13T20:38:24.037Z,96.00
2018-02-13T20:40:53.172Z,96.00
2018-02-13T20:43:21.513Z,95.70
2018-02-13T20:45:50.652Z,95.90
2018-02-13T20:48:19.914Z,95.90
2018-02-13T20:50:49.061Z,96.20
2018-02-13T20:53:17.407Z,96.20
2018-02-13T20:55:45.746Z,95.80
2018-02-13T20:58:14.097Z,96.00
2018-02-13T21:00:42.458Z,95.90
2018-02-13T21:03:10.849Z,95.80
2018-02-13T21:05:39.250Z,95.60
2018-02-13T21:08:08.136Z,95.70
2018-02-13T21:10:36.501Z,95.50
2018-02-13T21:13:04.836Z,95.40
2018-02-13T21:15:33.975Z,95.40
2018-02-13T21:18:02.372Z,95.40
2018-02-13T21:20:30.891Z,95.10
2018-02-13T21:22:59.993Z,94.90
2018-02-13T21:25:29.121Z,94.80
2018-02-13T21:27:58.056Z,94.80
2018-02-13T21:30:26.557Z,94.80
2018-02-13T21:32:55.901Z,95.00
2018-02-13T21:35:24.264Z,94.70
2018-02-13T21:37:52.607Z,94.80
2018-02-13T21:40:20.940Z,94.80
2018-02-13T21:42:49.280Z,94.90
2018-02-13T21:45:18.411Z,95.00
2018-02-13T21:47:46.763Z,95.00
2018-02-13T21:50:15.881Z,94.80
2018-02-13T21:52:44.218Z,94.80
2018-02-13T21:55:12.574Z,95.00
2018-02-13T21:57:40.912Z,94.90
2018-02-13T22:00:09.262Z,94.70
2018-02-13T22:02:38.372Z,94.60
2018-02-13T22:05:07.463Z,94.80
2018-02-13T22:07:36.624Z,94.90
2018-02-13T22:10:05.039Z,94.90
2018-02-13T22:12:34.160Z,95.00
2018-02-13T22:15:02.498Z,95.00
2018-02-13T22:17:30.844Z,95.00
2018-02-13T22:19:59.196Z,95.20
2018-02-13T22:22:27.524Z,95.20
2018-02-13T22:24:55.971Z,95.40
2018-02-13T22:27:24.300Z,95.40
2018-02-13T22:29:53.425Z,95.70
2018-02-13T22:32:21.771Z,95.70
2018-02-13T22:34:50.099Z,96.00
2018-02-13T22:37:18.447Z,95.90
2018-02-13T22:39:47.540Z,95.60
2018-02-13T22:42:16.645Z,95.60
2018-02-13T22:44:45.008Z,95.60
2018-02-13T22:47:13.366Z,95.80
2018-02-13T22:49:41.692Z,95.90
2018-02-13T22:52:10.072Z,95.90
2018-02-13T22:54:38.427Z,96.10
2018-02-13T22:57:07.553Z,96.40
2018-02-13T22:59:35.896Z,96.10
2018-02-13T23:02:05.007Z,96.10
2018-02-13T23:04:34.182Z,96.10
2018-02-13T23:07:02.645Z,96.10
2018-02-13T23:09:30.975Z,96.20
2018-02-13T23:11:59.315Z,96.40
2018-02-13T23:14:27.667Z,96.60
2018-02-13T23:16:56.013Z,96.70
2018-02-13T23:19:24.734Z,96.60
2018-02-13T23:21:53.093Z,96.50
2018-02-13T23:24:21.458Z,96.70
2018-02-13T23:26:49.836Z,96.80
2018-02-13T23:29:18.172Z,96.80
2018-02-13T23:31:46.500Z,96.90
2018-02-13T23:34:14.946Z,96.70
2018-02-13T23:36:44.060Z,96.80
2018-02-13T23:39:12.450Z,96.80
2018-02-13T23:41:40.811Z,97.00
2018-02-13T23:44:09.904Z,97.00
2018-02-13T23:46:39.005Z,96.80
2018-02-13T23:49:07.349Z,96.80
2018-02-13T23:51:35.682Z,96.70
2018-02-13T23:54:04.028Z,97.00
2018-02-13T23:56:33.136Z,96.90
2018-02-13T23:59:02.240Z,96.70
